Rocky Fork Lake, Indiana
Current Conditions -  °F | °C
As of 6:19 PM on Friday 19 Dec 2014 (Local Time) from KHUF Reporting Station
Overcast Overcast  
Wind Chill: 27°   Ceiling: 2900
Heat Index: 32°   Visibility: 10mi
Dew Point: 24°   Wind: 5mph
Humidity: 73%   Direction: 70°ENE
Pressure: 30.3"   Gusts: NA
Location:  39.5158°N, 87.1262°W
Report Text: KHUF 192319Z 07004KT 10SM OVC029 00/M04 A3030 RMK AO2 T00001044
Loading
Personal Weather Stations






























Interactive Weather Map New forecast layout! Learn more

10-Day Weather Forecast

Advertisements
Track Severe Weather on mobile